Time;durP1;ratioP1;P1;durP2;ratioP2;P2;SDS_P1;SDS_P2;PMS_P1;PMS_P2;Temp;Humidity;BMP_temperature;BMP_pressure;BME280_temperature;BME280_humidity;BME280_pressure;Samples;Min_cycle;Max_cycle;Signal;HPM_P1;HPM_P2
2022/12/06 00:01:48;;;;;;;;;;;29.40;86.20;;;;;;5084850;28;19935;-74
2022/12/06 00:04:15;;;;;;;;;;;29.40;86.00;;;;;;5085260;28;19935;-73
2022/12/06 00:06:50;;;;;;;;;;;29.40;86.50;;;;;;5086535;28;20313;-75
2022/12/06 00:09:18;;;;;;;;;;;29.60;88.00;;;;;;5090121;28;19996;-75
2022/12/06 00:11:45;;;;;;;;;;;29.60;86.70;;;;;;5073783;28;19920;-70
2022/12/06 00:14:12;;;;;;;;;;;29.40;86.50;;;;;;5085789;28;19920;-74
2022/12/06 00:16:38;;;;;;;;;;;29.60;86.60;;;;;;5079123;28;19927;-73
2022/12/06 00:19:05;;;;;;;;;;;30.00;86.00;;;;;;5084377;28;19919;-75
2022/12/06 00:21:36;;;;;;;;;;;30.30;85.70;;;;;;5078735;28;19973;-74
2022/12/06 00:24:04;;;;;;;;;;;30.40;85.20;;;;;;5092508;28;20009;-73
2022/12/06 00:26:31;;;;;;;;;;;30.60;84.80;;;;;;5084732;28;19969;-74
2022/12/06 00:28:58;;;;;;;;;;;30.90;83.90;;;;;;5081090;28;20450;-74
2022/12/06 00:31:26;;;;;;;;;;;31.20;85.90;;;;;;5072821;28;19912;-74
2022/12/06 00:33:53;;;;;;;;;;;30.40;82.40;;;;;;5081704;28;20510;-75
2022/12/06 00:36:19;;;;;;;;;;;29.60;83.80;;;;;;5076998;28;20445;-75
2022/12/06 00:38:46;;;;;;;;;;;29.10;84.70;;;;;;5086327;28;19912;-76
2022/12/06 00:41:17;;;;;;;;;;;28.90;84.30;;;;;;5089444;28;19913;-75
2022/12/06 00:43:45;;;;;;;;;;;28.80;84.00;;;;;;5088290;28;19916;-73
2022/12/06 00:46:12;;;;;;;;;;;28.80;84.50;;;;;;5091273;28;19965;-74
2022/12/06 00:48:39;;;;;;;;;;;29.10;84.00;;;;;;5076063;28;20007;-75
2022/12/06 00:51:06;;;;;;;;;;;29.60;83.60;;;;;;5088143;28;20365;-73
2022/12/06 00:53:32;;;;;;;;;;;30.00;83.20;;;;;;5092333;28;19919;-76
2022/12/06 00:55:59;;;;;;;;;;;30.50;81.90;;;;;;5087495;28;20627;-75
2022/12/06 00:58:26;;;;;;;;;;;30.20;81.50;;;;;;5081302;28;19967;-72
2022/12/06 01:00:53;;;;;;;;;;;29.70;82.50;;;;;;5083108;28;19920;-74
2022/12/06 01:03:20;;;;;;;;;;;29.70;83.20;;;;;;5086807;28;19999;-71
2022/12/06 01:05:48;;;;;;;;;;;29.70;83.60;;;;;;5091465;28;20316;-73
2022/12/06 01:08:16;;;;;;;;;;;29.50;83.30;;;;;;5087493;28;19909;-73
2022/12/06 01:10:50;;;;;;;;;;;29.40;82.90;;;;;;5084191;28;20439;-73
2022/12/06 01:13:17;;;;;;;;;;;29.00;83.00;;;;;;5085364;28;19934;-75
2022/12/06 01:15:43;;;;;;;;;;;29.20;83.60;;;;;;5089021;28;19999;-74
2022/12/06 01:18:10;;;;;;;;;;;29.40;83.70;;;;;;5079998;28;19946;-75
2022/12/06 01:20:37;;;;;;;;;;;29.00;83.60;;;;;;5079690;28;20054;-74
2022/12/06 01:23:03;;;;;;;;;;;28.90;83.50;;;;;;5077719;28;19919;-74
2022/12/06 01:25:31;;;;;;;;;;;29.10;84.20;;;;;;5086298;28;20015;-78
2022/12/06 01:27:58;;;;;;;;;;;29.00;82.90;;;;;;5098390;28;19920;-75
2022/12/06 01:30:26;;;;;;;;;;;28.60;83.70;;;;;;5083335;28;20007;-74
2022/12/06 01:32:52;;;;;;;;;;;28.30;83.90;;;;;;5090369;28;19920;-78
2022/12/06 01:35:19;;;;;;;;;;;28.00;84.70;;;;;;5092769;28;19963;-74
2022/12/06 01:37:46;;;;;;;;;;;27.70;85.10;;;;;;5090400;28;19924;-78
2022/12/06 01:40:12;;;;;;;;;;;27.50;85.50;;;;;;5088430;28;19920;-74
2022/12/06 01:42:39;;;;;;;;;;;27.30;85.50;;;;;;5085810;28;20328;-79
2022/12/06 01:45:06;;;;;;;;;;;27.00;85.80;;;;;;5090704;28;20681;-77
2022/12/06 01:47:40;;;;;;;;;;;26.90;86.80;;;;;;5086296;28;20362;-74
2022/12/06 01:50:19;;;;;;;;;;;27.30;86.00;;;;;;5091849;28;20018;-76
2022/12/06 01:52:46;;;;;;;;;;;27.70;85.90;;;;;;5083593;28;19917;-75
2022/12/06 01:55:13;;;;;;;;;;;28.00;85.40;;;;;;5090888;28;19962;-75
2022/12/06 01:57:40;;;;;;;;;;;28.40;85.20;;;;;;5090298;28;19971;-75
2022/12/06 02:00:07;;;;;;;;;;;28.60;84.70;;;;;;5089137;28;19916;-73
2022/12/06 02:02:34;;;;;;;;;;;28.60;84.60;;;;;;5075067;28;19924;-76
2022/12/06 02:05:01;;;;;;;;;;;28.80;84.50;;;;;;5078817;28;20550;-76
2022/12/06 02:07:28;;;;;;;;;;;29.10;85.50;;;;;;5075962;28;19912;-75
2022/12/06 02:09:55;;;;;;;;;;;28.90;84.40;;;;;;5076612;28;19935;-78
2022/12/06 02:12:22;;;;;;;;;;;28.50;84.50;;;;;;5075911;28;19921;-77
2022/12/06 02:14:51;;;;;;;;;;;28.20;85.00;;;;;;5084839;28;20354;-76
2022/12/06 02:17:36;;;;;;;;;;;28.30;86.00;;;;;;5086031;28;19927;-80
2022/12/06 02:20:18;;;;;;;;;;;28.20;84.90;;;;;;5086022;28;19923;-79
2022/12/06 02:22:56;;;;;;;;;;;28.50;85.40;;;;;;5082451;28;19920;-76
2022/12/06 02:25:41;;;;;;;;;;;28.90;85.60;;;;;;5081280;28;20340;-75
2022/12/06 02:28:10;;;;;;;;;;;28.80;84.50;;;;;;5088039;28;20366;-76
2022/12/06 02:30:37;;;;;;;;;;;28.80;84.40;;;;;;5090025;28;19919;-76
2022/12/06 02:33:06;;;;;;;;;;;29.00;84.40;;;;;;5081359;28;19916;-74
2022/12/06 02:35:47;;;;;;;;;;;29.20;84.10;;;;;;5092602;28;19973;-74
2022/12/06 02:38:20;;;;;;;;;;;29.50;83.30;;;;;;5085499;28;19978;-76
2022/12/06 02:40:52;;;;;;;;;;;29.40;83.90;;;;;;5073293;28;20008;-75
2022/12/06 02:43:22;;;;;;;;;;;29.50;83.60;;;;;;5085855;28;19942;-74
2022/12/06 02:45:51;;;;;;;;;;;29.50;83.60;;;;;;5085304;28;19912;-77
2022/12/06 02:48:18;;;;;;;;;;;29.50;83.30;;;;;;5088675;28;20294;-76
2022/12/06 02:50:49;;;;;;;;;;;29.70;83.00;;;;;;5082806;28;19919;-77
2022/12/06 02:53:18;;;;;;;;;;;29.80;83.40;;;;;;5099269;28;19912;-76
2022/12/06 02:55:46;;;;;;;;;;;29.80;83.10;;;;;;5083614;28;19920;-73
2022/12/06 02:58:13;;;;;;;;;;;30.00;83.60;;;;;;5090541;28;19923;-78
2022/12/06 03:00:41;;;;;;;;;;;30.10;83.60;;;;;;5084125;28;19916;-76
2022/12/06 03:03:26;;;;;;;;;;;29.40;82.80;;;;;;5083147;28;20437;-75
2022/12/06 03:06:06;;;;;;;;;;;29.00;84.30;;;;;;5093122;28;20701;-74
2022/12/06 03:08:54;;;;;;;;;;;28.80;84.80;;;;;;5090142;28;19945;-76
2022/12/06 03:11:20;;;;;;;;;;;28.90;85.80;;;;;;5085736;28;20375;-77
2022/12/06 03:14:02;;;;;;;;;;;28.80;85.50;;;;;;5095272;28;19991;-73
2022/12/06 03:16:44;;;;;;;;;;;28.20;85.60;;;;;;5099773;28;20507;-77
2022/12/06 03:19:14;;;;;;;;;;;27.90;87.20;;;;;;5094632;28;20411;-73
2022/12/06 03:21:44;;;;;;;;;;;27.80;87.10;;;;;;5080953;28;20039;-77
2022/12/06 03:24:12;;;;;;;;;;;27.70;87.30;;;;;;5089487;28;20372;-86
2022/12/06 03:26:40;;;;;;;;;;;28.10;89.30;;;;;;5083004;28;20010;-77
2022/12/06 03:29:08;;;;;;;;;;;28.30;87.40;;;;;;5094806;28;19984;-77
2022/12/06 03:31:36;;;;;;;;;;;28.50;86.80;;;;;;5088462;28;19955;-74
2022/12/06 03:34:10;;;;;;;;;;;28.70;87.50;;;;;;5094694;28;19924;-80
2022/12/06 03:36:37;;;;;;;;;;;28.60;86.00;;;;;;5081702;28;19924;-74
2022/12/06 03:39:05;;;;;;;;;;;28.60;86.70;;;;;;5087433;28;19955;-74
2022/12/06 03:41:36;;;;;;;;;;;28.80;87.40;;;;;;5085838;28;19965;-72
2022/12/06 03:44:03;;;;;;;;;;;28.80;86.30;;;;;;5090725;28;20435;-72
2022/12/06 03:46:32;;;;;;;;;;;28.90;87.50;;;;;;5089733;28;19912;-74
2022/12/06 03:49:01;;;;;;;;;;;29.00;86.30;;;;;;5092506;28;19913;-73
2022/12/06 03:51:29;;;;;;;;;;;28.80;85.50;;;;;;5092224;28;19916;-74
2022/12/06 03:53:58;;;;;;;;;;;28.60;85.30;;;;;;5094905;28;19969;-70
2022/12/06 03:56:25;;;;;;;;;;;28.70;85.40;;;;;;5084759;28;20059;-73
2022/12/06 03:58:51;;;;;;;;;;;28.90;84.60;;;;;;5084883;28;20456;-73
2022/12/06 04:01:18;;;;;;;;;;;29.20;85.30;;;;;;5082280;28;19916;-76
2022/12/06 04:03:45;;;;;;;;;;;29.50;84.60;;;;;;5077111;28;20505;-74
2022/12/06 04:06:12;;;;;;;;;;;29.60;84.40;;;;;;5071222;28;20774;-77
2022/12/06 04:08:39;;;;;;;;;;;29.10;83.10;;;;;;5077980;28;19990;-73
2022/12/06 04:11:06;;;;;;;;;;;28.70;84.00;;;;;;5073857;28;19917;-73
2022/12/06 04:13:34;;;;;;;;;;;28.10;84.60;;;;;;5072683;28;19916;-77
2022/12/06 04:16:01;;;;;;;;;;;27.80;85.10;;;;;;5075296;28;19916;-74
2022/12/06 04:18:28;;;;;;;;;;;27.30;85.30;;;;;;5077572;28;20346;-73
2022/12/06 04:23:42;;;;;;;;;;;26.80;86.30;;;;;;5075748;28;19923;-71
2022/12/06 04:26:10;;;;;;;;;;;26.80;86.20;;;;;;5077055;28;19915;-75
2022/12/06 04:39:36;;;;;;;;;;;26.30;87.80;;;;;;5074034;28;20013;-77
2022/12/06 04:44:48;;;;;;;;;;;27.10;86.70;;;;;;5088122;28;19919;-75
2022/12/06 04:47:15;;;;;;;;;;;27.50;85.00;;;;;;5081634;28;19958;-76
2022/12/06 04:49:41;;;;;;;;;;;27.40;84.50;;;;;;5085543;28;19913;-72
2022/12/06 04:52:09;;;;;;;;;;;27.30;85.90;;;;;;5075543;28;19920;-74
2022/12/06 04:54:36;;;;;;;;;;;27.40;84.50;;;;;;5078147;28;19916;-76
2022/12/06 04:57:02;;;;;;;;;;;27.40;84.80;;;;;;5075326;28;19963;-73
2022/12/06 04:59:29;;;;;;;;;;;27.30;86.00;;;;;;5077465;28;19995;-76
2022/12/06 05:01:56;;;;;;;;;;;27.30;85.50;;;;;;5076290;28;20311;-72
2022/12/06 05:04:23;;;;;;;;;;;27.40;85.90;;;;;;5076323;28;19942;-75
2022/12/06 05:06:49;;;;;;;;;;;27.20;85.50;;;;;;5073999;28;19920;-73
2022/12/06 05:09:16;;;;;;;;;;;26.60;85.60;;;;;;5077207;28;19912;-74
2022/12/06 05:11:43;;;;;;;;;;;26.30;86.50;;;;;;5084913;28;19942;-75
2022/12/06 05:14:09;;;;;;;;;;;26.00;86.90;;;;;;5091907;28;19912;-73
2022/12/06 05:16:36;;;;;;;;;;;25.70;87.30;;;;;;5086969;28;19970;-77
2022/12/06 05:19:03;;;;;;;;;;;25.50;87.80;;;;;;5087880;28;19974;-78
2022/12/06 05:21:29;;;;;;;;;;;25.50;88.00;;;;;;5086964;28;19912;-75
2022/12/06 05:23:56;;;;;;;;;;;25.90;88.00;;;;;;5083564;28;20349;-76
2022/12/06 05:26:25;;;;;;;;;;;26.10;86.40;;;;;;5075012;28;19985;-76
2022/12/06 05:28:52;;;;;;;;;;;26.20;87.50;;;;;;5072990;28;19912;-76
2022/12/06 05:31:19;;;;;;;;;;;26.20;85.50;;;;;;5076479;28;19916;-74
2022/12/06 05:33:46;;;;;;;;;;;26.00;85.90;;;;;;5080888;28;19966;-76
2022/12/06 05:36:18;;;;;;;;;;;25.90;85.90;;;;;;5084086;28;19920;-76
2022/12/06 05:38:45;;;;;;;;;;;25.80;86.60;;;;;;5074950;28;19932;-74
2022/12/06 05:41:12;;;;;;;;;;;26.00;84.60;;;;;;5081508;28;19915;-75
2022/12/06 05:43:39;;;;;;;;;;;26.10;85.20;;;;;;5074052;28;19920;-74
2022/12/06 05:46:05;;;;;;;;;;;26.10;84.80;;;;;;5071946;28;19924;-74
2022/12/06 05:48:32;;;;;;;;;;;26.20;84.80;;;;;;5072888;28;19921;-77
2022/12/06 05:50:59;;;;;;;;;;;26.40;85.60;;;;;;5080164;28;19916;-75
2022/12/06 05:53:26;;;;;;;;;;;26.50;84.60;;;;;;5075205;28;19920;-74
2022/12/06 05:55:52;;;;;;;;;;;26.40;84.00;;;;;;5078206;28;20015;-77
2022/12/06 05:58:19;;;;;;;;;;;26.20;84.10;;;;;;5078469;28;19931;-73
2022/12/06 06:00:47;;;;;;;;;;;26.00;84.50;;;;;;5081600;28;19912;-83
2022/12/06 06:03:15;;;;;;;;;;;25.60;84.20;;;;;;5075072;28;20351;-78
2022/12/06 06:05:45;;;;;;;;;;;25.40;85.00;;;;;;5071421;28;19927;-76
2022/12/06 06:08:12;;;;;;;;;;;25.40;85.40;;;;;;5083801;28;19913;-76
2022/12/06 06:10:38;;;;;;;;;;;25.50;85.50;;;;;;5087207;28;19908;-75
2022/12/06 06:13:05;;;;;;;;;;;25.50;85.10;;;;;;5081590;28;19999;-73
2022/12/06 06:15:32;;;;;;;;;;;25.60;84.60;;;;;;5083779;28;20371;-76
2022/12/06 06:17:59;;;;;;;;;;;25.50;84.20;;;;;;5080740;28;19973;-74
2022/12/06 06:20:25;;;;;;;;;;;25.40;84.70;;;;;;5082067;28;19923;-75
2022/12/06 06:22:53;;;;;;;;;;;25.30;84.80;;;;;;5073665;28;19938;-75
2022/12/06 06:25:19;;;;;;;;;;;25.30;83.80;;;;;;5091826;28;19953;-73
2022/12/06 06:27:46;;;;;;;;;;;25.20;84.60;;;;;;5070958;28;19920;-73
2022/12/06 06:30:13;;;;;;;;;;;25.20;85.00;;;;;;5075483;28;19916;-74
2022/12/06 06:32:40;;;;;;;;;;;25.20;85.10;;;;;;5078469;28;19954;-73
2022/12/06 06:35:06;;;;;;;;;;;25.20;85.10;;;;;;5084307;28;19932;-73
2022/12/06 06:37:33;;;;;;;;;;;25.00;85.60;;;;;;5073073;28;20013;-74
2022/12/06 06:40:00;;;;;;;;;;;24.90;85.90;;;;;;5072504;28;19912;-75
2022/12/06 06:42:27;;;;;;;;;;;24.70;86.50;;;;;;5079274;28;19916;-74
2022/12/06 06:44:54;;;;;;;;;;;24.40;87.50;;;;;;5084766;28;19916;-72
2022/12/06 06:47:21;;;;;;;;;;;24.20;88.10;;;;;;5081804;28;19919;-74
2022/12/06 06:49:48;;;;;;;;;;;24.10;88.60;;;;;;5073549;28;19923;-71
2022/12/06 06:52:14;;;;;;;;;;;24.10;88.80;;;;;;5081836;28;19913;-73
2022/12/06 06:54:41;;;;;;;;;;;24.00;89.00;;;;;;5089777;28;19912;-72
2022/12/06 06:57:08;;;;;;;;;;;24.00;89.20;;;;;;5084627;28;19998;-73
2022/12/06 06:59:34;;;;;;;;;;;24.20;88.50;;;;;;5084676;28;19912;-77
2022/12/06 07:02:01;;;;;;;;;;;24.50;89.10;;;;;;5074075;28;19917;-74
2022/12/06 07:04:28;;;;;;;;;;;24.60;88.40;;;;;;5082928;28;20002;-74
2022/12/06 07:06:55;;;;;;;;;;;24.70;87.70;;;;;;5076704;28;20607;-74
2022/12/06 07:09:22;;;;;;;;;;;24.70;87.80;;;;;;5075664;28;20378;-74
2022/12/06 07:11:48;;;;;;;;;;;24.60;88.00;;;;;;5076306;28;19942;-75
2022/12/06 07:14:15;;;;;;;;;;;24.20;88.50;;;;;;5076187;28;19913;-74
2022/12/06 07:16:42;;;;;;;;;;;24.00;89.10;;;;;;5079271;28;20011;-74
2022/12/06 07:19:08;;;;;;;;;;;23.80;89.70;;;;;;5070384;28;19952;-73
2022/12/06 07:21:35;;;;;;;;;;;23.70;89.90;;;;;;5075014;28;19931;-71
2022/12/06 07:24:02;;;;;;;;;;;23.70;90.30;;;;;;5076295;28;19951;-73
2022/12/06 07:26:28;;;;;;;;;;;23.60;90.40;;;;;;5072926;28;19935;-71
2022/12/06 07:28:58;;;;;;;;;;;23.50;90.60;;;;;;5075544;28;19947;-74
2022/12/06 07:31:25;;;;;;;;;;;23.30;90.70;;;;;;5078214;28;19916;-76
2022/12/06 07:33:56;;;;;;;;;;;23.30;90.90;;;;;;5072047;28;19978;-74
2022/12/06 07:36:24;;;;;;;;;;;23.30;91.00;;;;;;5074766;28;19924;-76
2022/12/06 07:38:52;;;;;;;;;;;23.40;91.20;;;;;;5075853;28;19977;-74
2022/12/06 07:46:49;;;;;;;;;;;23.30;90.70;;;;;;5088537;28;19918;-71
2022/12/06 07:49:16;;;;;;;;;;;23.30;91.00;;;;;;5090662;28;19922;-74
2022/12/06 07:51:44;;;;;;;;;;;23.20;91.10;;;;;;5081462;28;19919;-72
2022/12/06 07:54:11;;;;;;;;;;;23.10;91.10;;;;;;5094032;28;20405;-75
2022/12/06 07:56:38;;;;;;;;;;;23.00;91.40;;;;;;5088845;28;20002;-74
2022/12/06 07:59:04;;;;;;;;;;;22.90;91.70;;;;;;5087748;28;19942;-73
2022/12/06 08:01:32;;;;;;;;;;;22.70;92.00;;;;;;5077318;28;20373;-74
2022/12/06 08:04:00;;;;;;;;;;;22.50;92.30;;;;;;5085308;28;19999;-75
2022/12/06 08:06:26;;;;;;;;;;;22.50;92.40;;;;;;5082484;28;19923;-75
2022/12/06 08:08:53;;;;;;;;;;;22.40;92.60;;;;;;5079648;28;20286;-77
2022/12/06 08:11:21;;;;;;;;;;;22.30;92.70;;;;;;5080202;28;19989;-73
2022/12/06 08:13:48;;;;;;;;;;;22.20;92.90;;;;;;5083125;28;19916;-74
2022/12/06 08:16:15;;;;;;;;;;;22.20;92.90;;;;;;5081697;28;20540;-71
2022/12/06 08:18:41;;;;;;;;;;;22.20;92.90;;;;;;5085488;28;19966;-76
2022/12/06 08:21:12;;;;;;;;;;;22.20;92.90;;;;;;5091578;28;19916;-77
2022/12/06 08:23:39;;;;;;;;;;;22.20;93.00;;;;;;5092060;28;19959;-77
2022/12/06 08:26:07;;;;;;;;;;;22.20;93.30;;;;;;5079692;28;20430;-77
2022/12/06 08:28:35;;;;;;;;;;;22.20;93.40;;;;;;5080794;28;19911;-77
2022/12/06 08:31:09;;;;;;;;;;;22.10;93.60;;;;;;5085657;28;19995;-75
2022/12/06 08:33:36;;;;;;;;;;;22.10;93.60;;;;;;5074004;28;19912;-73
2022/12/06 08:36:07;;;;;;;;;;;22.00;93.80;;;;;;5078103;28;20678;-79
2022/12/06 08:38:35;;;;;;;;;;;21.90;93.90;;;;;;5080305;28;19983;-76
2022/12/06 08:41:01;;;;;;;;;;;21.90;94.10;;;;;;5076577;28;19916;-75
2022/12/06 08:43:28;;;;;;;;;;;21.90;94.10;;;;;;5081179;28;19912;-80
2022/12/06 08:45:55;;;;;;;;;;;21.90;94.30;;;;;;5080574;28;19917;-77
2022/12/06 08:48:22;;;;;;;;;;;21.80;94.20;;;;;;5076946;28;19995;-75
2022/12/06 08:50:48;;;;;;;;;;;21.70;94.40;;;;;;5085972;28;19912;-74
2022/12/06 08:53:15;;;;;;;;;;;21.60;94.50;;;;;;5079446;28;19916;-75
2022/12/06 08:55:42;;;;;;;;;;;21.50;94.70;;;;;;5084707;28;20403;-75
2022/12/06 08:58:08;;;;;;;;;;;21.50;94.80;;;;;;5081999;28;19974;-73
2022/12/06 09:00:35;;;;;;;;;;;21.60;94.70;;;;;;5081179;28;19999;-73
2022/12/06 09:03:02;;;;;;;;;;;21.60;94.80;;;;;;5078717;28;19916;-74
2022/12/06 09:05:28;;;;;;;;;;;21.60;94.80;;;;;;5073601;28;20358;-77
2022/12/06 09:07:55;;;;;;;;;;;21.60;94.70;;;;;;5085477;28;19916;-74
2022/12/06 09:10:22;;;;;;;;;;;21.60;94.70;;;;;;5081588;28;19916;-75
2022/12/06 09:12:49;;;;;;;;;;;21.50;94.90;;;;;;5079682;28;19951;-75
2022/12/06 09:15:16;;;;;;;;;;;21.50;95.00;;;;;;5083300;28;20012;-73
2022/12/06 09:17:43;;;;;;;;;;;21.50;95.00;;;;;;5084824;28;19927;-75
2022/12/06 09:20:16;;;;;;;;;;;21.50;95.20;;;;;;5084988;28;19912;-73
2022/12/06 09:22:46;;;;;;;;;;;21.40;95.30;;;;;;5073353;28;19969;-79
2022/12/06 09:25:13;;;;;;;;;;;21.40;95.40;;;;;;5077855;28;19938;-77
2022/12/06 09:27:39;;;;;;;;;;;21.40;95.50;;;;;;5106144;27;19912;-75
2022/12/06 09:30:06;;;;;;;;;;;21.40;95.60;;;;;;5088769;28;19916;-74
2022/12/06 09:32:33;;;;;;;;;;;21.40;95.80;;;;;;5087762;28;19916;-73
2022/12/06 09:35:00;;;;;;;;;;;21.40;95.70;;;;;;5113360;27;19920;-76
2022/12/06 09:37:27;;;;;;;;;;;21.40;95.80;;;;;;5078684;28;19925;-72
2022/12/06 09:39:56;;;;;;;;;;;21.30;95.70;;;;;;5071683;28;19920;-73
2022/12/06 09:42:24;;;;;;;;;;;21.30;95.80;;;;;;5074817;28;19930;-76
2022/12/06 09:44:53;;;;;;;;;;;21.20;96.00;;;;;;5075735;28;20260;-77
2022/12/06 09:47:20;;;;;;;;;;;21.20;95.90;;;;;;5082646;28;20001;-77
2022/12/06 09:49:47;;;;;;;;;;;21.10;96.00;;;;;;5090667;28;19912;-77
2022/12/06 09:52:14;;;;;;;;;;;21.10;96.00;;;;;;5074355;28;19920;-77
2022/12/06 09:54:50;;;;;;;;;;;21.00;96.00;;;;;;5091103;28;19916;-77
2022/12/06 09:57:20;;;;;;;;;;;21.00;96.00;;;;;;5073122;28;20363;-78
2022/12/06 10:00:11;;;;;;;;;;;21.00;96.00;;;;;;5079801;28;20460;-78
2022/12/06 10:02:55;;;;;;;;;;;20.90;96.10;;;;;;5085968;28;20358;-73
2022/12/06 10:05:59;;;;;;;;;;;20.90;96.20;;;;;;5074573;28;19920;-77
2022/12/06 10:08:32;;;;;;;;;;;20.80;96.40;;;;;;5061526;28;20351;-79
2022/12/06 10:11:16;;;;;;;;;;;20.60;96.60;;;;;;5075110;28;19920;-75
2022/12/06 10:14:01;;;;;;;;;;;20.50;96.80;;;;;;5076831;28;20004;-74
2022/12/06 10:16:51;;;;;;;;;;;20.40;97.00;;;;;;5083076;28;20061;-79
2022/12/06 10:19:37;;;;;;;;;;;20.30;97.20;;;;;;5077584;28;19926;-77
2022/12/06 10:22:23;;;;;;;;;;;20.30;97.30;;;;;;5076480;28;19916;-73
2022/12/06 10:24:52;;;;;;;;;;;20.30;97.40;;;;;;5076059;28;19916;-78
2022/12/06 10:27:22;;;;;;;;;;;20.20;97.50;;;;;;5075051;28;20343;-72
2022/12/06 10:29:59;;;;;;;;;;;20.20;97.60;;;;;;5079815;28;20403;-75
2022/12/06 10:32:29;;;;;;;;;;;20.10;98.00;;;;;;5084115;28;19972;-73
2022/12/06 10:34:57;;;;;;;;;;;20.00;98.40;;;;;;5081733;28;20148;-72
2022/12/06 10:37:36;;;;;;;;;;;19.80;98.70;;;;;;5077479;28;19928;-72
2022/12/06 10:40:02;;;;;;;;;;;19.70;99.00;;;;;;5070146;28;20413;-73
2022/12/06 10:42:35;;;;;;;;;;;19.70;99.40;;;;;;5074453;28;20355;-78
2022/12/06 10:47:02;;;;;;;;;;;19.60;99.70;;;;;;5085811;28;19916;-75
2022/12/06 10:47:55;;;;;;;;;;;19.50;99.90;;;;;;5074545;28;19931;-73
2022/12/06 10:50:26;;;;;;;;;;;19.50;99.90;;;;;;5075029;28;19917;-75
2022/12/06 10:53:15;;;;;;;;;;;19.50;99.90;;;;;;5082222;28;20007;-74
2022/12/06 10:55:45;;;;;;;;;;;19.40;99.90;;;;;;5073967;28;19916;-74
2022/12/06 10:58:30;;;;;;;;;;;19.40;99.90;;;;;;5076078;28;19928;-74
2022/12/06 11:00:59;;;;;;;;;;;19.30;99.90;;;;;;5074228;28;19916;-75
2022/12/06 11:03:32;;;;;;;;;;;19.30;99.90;;;;;;5083955;28;19919;-76
2022/12/06 11:06:16;;;;;;;;;;;19.30;99.90;;;;;;5090043;28;19919;-75
2022/12/06 11:08:48;;;;;;;;;;;19.30;99.90;;;;;;5087248;28;19963;-74
2022/12/06 11:11:16;;;;;;;;;;;19.30;99.90;;;;;;5083054;28;19920;-72
2022/12/06 11:13:46;;;;;;;;;;;19.20;99.90;;;;;;5077609;28;19967;-77
2022/12/06 11:16:13;;;;;;;;;;;19.20;99.90;;;;;;5076876;28;19916;-76
2022/12/06 11:18:40;;;;;;;;;;;19.10;99.90;;;;;;5080469;28;20078;-76
2022/12/06 11:21:24;;;;;;;;;;;19.00;99.90;;;;;;5072571;28;19920;-74
2022/12/06 11:23:52;;;;;;;;;;;19.00;99.90;;;;;;5075544;28;20381;-73
2022/12/06 11:26:23;;;;;;;;;;;18.90;99.90;;;;;;5075274;28;19916;-73
2022/12/06 11:29:05;;;;;;;;;;;18.90;99.90;;;;;;5082505;28;19962;-74
2022/12/06 11:31:38;;;;;;;;;;;18.90;99.90;;;;;;5077682;28;20014;-71
2022/12/06 11:34:06;;;;;;;;;;;18.90;99.90;;;;;;5081955;28;20401;-71
2022/12/06 11:36:34;;;;;;;;;;;18.90;99.90;;;;;;5094169;27;19920;-72
2022/12/06 11:39:00;;;;;;;;;;;18.90;99.90;;;;;;5079204;28;19927;-75
2022/12/06 11:41:30;;;;;;;;;;;18.90;99.90;;;;;;5082491;28;19915;-75
2022/12/06 11:43:57;;;;;;;;;;;18.90;99.90;;;;;;5075742;28;20359;-73
2022/12/06 11:46:24;;;;;;;;;;;18.90;99.90;;;;;;5077003;28;19981;-74
2022/12/06 11:48:51;;;;;;;;;;;18.90;99.90;;;;;;5084182;28;19933;-72
2022/12/06 11:51:23;;;;;;;;;;;18.90;99.90;;;;;;5083657;28;20251;-72
2022/12/06 11:53:49;;;;;;;;;;;18.90;99.90;;;;;;5091819;28;19922;-72
2022/12/06 11:56:27;;;;;;;;;;;18.90;99.90;;;;;;5088801;28;20426;-73
2022/12/06 11:59:00;;;;;;;;;;;18.80;99.90;;;;;;5084451;28;19973;-74
2022/12/06 12:01:37;;;;;;;;;;;18.80;99.90;;;;;;5077584;28;19966;-73
2022/12/06 12:04:22;;;;;;;;;;;18.80;99.90;;;;;;5083711;28;19919;-73
2022/12/06 12:06:52;;;;;;;;;;;18.70;99.90;;;;;;5074627;28;19940;-71
2022/12/06 12:09:19;;;;;;;;;;;18.80;99.90;;;;;;5088670;28;19912;-72
2022/12/06 12:11:54;;;;;;;;;;;18.80;99.90;;;;;;5085533;28;19916;-72
2022/12/06 12:14:26;;;;;;;;;;;18.80;99.90;;;;;;5074811;28;19924;-72
2022/12/06 12:16:58;;;;;;;;;;;18.80;99.90;;;;;;5082600;28;19913;-74
2022/12/06 12:19:24;;;;;;;;;;;18.80;99.90;;;;;;5083376;28;20264;-74
2022/12/06 12:21:52;;;;;;;;;;;18.90;99.90;;;;;;5085515;28;20428;-73
2022/12/06 12:24:37;;;;;;;;;;;18.80;99.90;;;;;;5078002;28;19912;-75
2022/12/06 12:27:23;;;;;;;;;;;18.80;99.90;;;;;;5077176;28;20290;-80
2022/12/06 12:30:10;;;;;;;;;;;18.80;99.90;;;;;;5075827;28;20321;-73
2022/12/06 12:32:36;;;;;;;;;;;18.70;99.90;;;;;;5086703;28;19917;-72
2022/12/06 12:35:24;;;;;;;;;;;18.80;99.90;;;;;;5086096;28;19966;-73
2022/12/06 12:37:55;;;;;;;;;;;18.70;99.90;;;;;;5089711;28;20283;-74
2022/12/06 12:40:37;;;;;;;;;;;18.70;99.90;;;;;;5090128;28;19920;-73
2022/12/06 12:43:05;;;;;;;;;;;18.70;99.90;;;;;;5077448;28;19912;-74
2022/12/06 12:45:32;;;;;;;;;;;18.60;99.90;;;;;;5084252;28;20141;-74
2022/12/06 12:48:03;;;;;;;;;;;18.50;99.90;;;;;;5078686;28;19916;-73
2022/12/06 12:50:30;;;;;;;;;;;18.40;99.90;;;;;;5073841;28;19908;-74
2022/12/06 12:52:59;;;;;;;;;;;18.30;99.90;;;;;;5086776;28;19939;-75
2022/12/06 12:55:30;;;;;;;;;;;18.30;99.90;;;;;;5076438;28;19961;-74
2022/12/06 12:58:00;;;;;;;;;;;18.20;99.90;;;;;;5074855;28;20015;-72
2022/12/06 13:00:34;;;;;;;;;;;18.20;99.90;;;;;;5082692;28;19920;-73
2022/12/06 13:03:08;;;;;;;;;;;18.10;99.90;;;;;;5078857;28;19981;-72
2022/12/06 13:05:36;;;;;;;;;;;18.10;99.90;;;;;;5086847;28;19919;-70
2022/12/06 13:08:18;;;;;;;;;;;18.00;99.90;;;;;;5094937;28;19920;-72
2022/12/06 13:10:46;;;;;;;;;;;18.00;99.90;;;;;;5092480;28;20302;-73
2022/12/06 13:13:26;;;;;;;;;;;17.90;99.90;;;;;;5086954;28;19962;-73
2022/12/06 13:15:54;;;;;;;;;;;17.80;99.90;;;;;;5086495;28;19927;-73
2022/12/06 13:18:39;;;;;;;;;;;17.70;99.90;;;;;;5092248;28;19920;-73
2022/12/06 13:21:29;;;;;;;;;;;17.70;99.90;;;;;;5086617;28;19920;-72
2022/12/06 13:24:15;;;;;;;;;;;17.60;99.90;;;;;;5082022;28;19916;-72
2022/12/06 13:26:45;;;;;;;;;;;17.50;99.90;;;;;;5074248;28;19917;-73
2022/12/06 13:29:23;;;;;;;;;;;17.40;99.90;;;;;;5082781;28;19913;-72
2022/12/06 13:31:57;;;;;;;;;;;17.40;99.90;;;;;;5089231;28;19920;-72
2022/12/06 13:34:24;;;;;;;;;;;17.40;99.90;;;;;;5098290;28;19958;-73
2022/12/06 13:36:53;;;;;;;;;;;17.40;99.90;;;;;;5095641;28;20573;-73
2022/12/06 13:39:32;;;;;;;;;;;17.40;99.90;;;;;;5077025;28;20358;-74
2022/12/06 13:42:18;;;;;;;;;;;17.40;99.90;;;;;;5085324;28;20340;-73
2022/12/06 13:44:47;;;;;;;;;;;17.50;99.90;;;;;;5078563;28;19912;-73
2022/12/06 13:47:26;;;;;;;;;;;17.50;99.90;;;;;;5081205;28;19965;-73
2022/12/06 13:49:54;;;;;;;;;;;17.60;99.90;;;;;;5090957;28;19916;-73
2022/12/06 13:52:43;;;;;;;;;;;17.60;99.90;;;;;;5082446;28;19913;-73
2022/12/06 13:55:27;;;;;;;;;;;17.70;99.90;;;;;;5066770;28;20275;-73
2022/12/06 13:58:00;;;;;;;;;;;17.80;99.90;;;;;;5089147;28;19924;-74
2022/12/06 14:00:29;;;;;;;;;;;17.80;99.90;;;;;;5077854;28;20628;-74
2022/12/06 14:03:24;;;;;;;;;;;17.90;99.90;;;;;;5102093;28;19912;-75
2022/12/06 14:05:55;;;;;;;;;;;17.90;99.90;;;;;;5072760;28;20358;-74
2022/12/06 14:08:24;;;;;;;;;;;17.90;99.90;;;;;;5074809;28;19912;-74
2022/12/06 14:10:51;;;;;;;;;;;17.90;99.90;;;;;;5091633;28;19913;-73
2022/12/06 14:13:19;;;;;;;;;;;17.90;99.90;;;;;;5091972;28;19961;-74
2022/12/06 14:15:50;;;;;;;;;;;17.80;99.90;;;;;;5092804;28;19908;-73
2022/12/06 14:18:22;;;;;;;;;;;17.70;99.90;;;;;;5077487;28;19973;-74
2022/12/06 14:20:50;;;;;;;;;;;17.70;99.90;;;;;;5078690;28;19942;-75
2022/12/06 14:23:30;;;;;;;;;;;17.60;99.90;;;;;;5091522;28;19912;-74
2022/12/06 14:26:15;;;;;;;;;;;17.50;99.90;;;;;;5082249;28;20321;-74
2022/12/06 14:28:42;;;;;;;;;;;17.50;99.90;;;;;;5076508;28;19915;-74
2022/12/06 14:31:19;;;;;;;;;;;17.40;99.90;;;;;;5085090;28;19927;-75
2022/12/06 14:33:46;;;;;;;;;;;17.30;99.90;;;;;;5086725;28;19912;-74
2022/12/06 14:36:17;;;;;;;;;;;17.30;99.90;;;;;;5085065;28;19974;-75
2022/12/06 14:38:50;;;;;;;;;;;17.20;99.90;;;;;;5083760;28;19931;-75
2022/12/06 14:44:14;;;;;;;;;;;17.10;99.90;;;;;;5090099;28;19920;-71
2022/12/06 14:46:42;;;;;;;;;;;17.10;99.90;;;;;;5090939;28;20260;-75
2022/12/06 14:51:57;;;;;;;;;;;17.00;99.90;;;;;;5091863;28;19916;-75
2022/12/06 14:54:27;;;;;;;;;;;16.90;99.90;;;;;;5072269;28;19919;-75
2022/12/06 14:56:54;;;;;;;;;;;16.90;99.90;;;;;;5076428;28;19916;-74
2022/12/06 14:59:22;;;;;;;;;;;16.90;99.90;;;;;;5088970;28;19963;-74
2022/12/06 15:01:53;;;;;;;;;;;16.90;99.90;;;;;;5072004;28;19908;-73